Aviation Digital Data Service (ADDS)

Output produced by METARs form (1758 UTC 02 December 2016)
found at http://aviationweather.gov/adds/metars/
 
METAR text: KBFM 021753Z 03008KT 10SM CLR 18/M01 A3024 RMK AO2 SLP241 T01831006 10189 20061 58006
Conditions at: KBFM (MOBILE/BROOKLEY , AL, US) observed 1753 UTC 02 December 2016
Temperature: 18.3°C (65°F)
Dewpoint: -0.6°C (31°F) [RH = 28%]
Pressure (altimeter): 30.24 inches Hg (1024.1 mb)
[Sea-level pressure: 1024.1 mb]
Winds: from the NNE (30 degrees) at 9 MPH (8 knots; 4.2 m/s)
Visibility: 10 or more miles (16+ km)
Ceiling: at least 12,000 feet AGL
Clouds: sky clear below 12,000 feet AGL
Weather: no significant weather observed at this time